Date,TemperatureHighF,TemperatureAvgF,TemperatureLowF,DewpointHighF,DewpointAvgF,DewpointLowF,HumidityHigh,HumidityAvg,HumidityLow,PressureMaxIn,PressureMinIn,WindSpeedMaxMPH,WindSpeedAvgMPH,GustSpeedMaxMPH,PrecipitationSumIn
2013-1-1,41,38,35,32,27,15,79,65,38,29.99,29.87,8,1,8,0.00
2013-1-2,39,32,26,29,23,13,87,69,37,30.19,29.95,10,1,10,0.00
2013-1-3,40,30,20,22,16,13,79,59,38,30.21,30.12,8,1,11,0.00
2013-1-4,42,33,26,22,18,16,67,54,40,30.20,30.10,18,4,18,0.00
2013-1-5,45,36,26,25,19,15,68,51,34,30.36,30.13,15,3,15,0.00
2013-1-6,45,40,30,29,26,23,82,59,47,30.14,30.00,21,3,21,0.00
2013-1-7,41,36,29,28,26,24,82,67,55,30.42,30.12,11,2,12,0.00
2013-1-8,55,41,29,30,27,24,82,60,33,30.39,30.30,24,4,24,0.00
2013-1-9,59,46,28,45,35,23,88,68,34,30.39,30.20,24,5,24,0.00
2013-1-10,55,45,35,31,28,22,71,52,34,30.55,30.39,16,1,16,0.00
2013-1-11,51,44,38,47,35,27,94,71,51,30.41,30.04,25,5,25,0.00
2013-1-12,67,51,40,54,46,39,98,86,61,30.12,30.04,6,0,6,0.00
2013-1-13,69,59,46,57,52,44,98,78,57,30.05,29.89,23,5,23,0.00
2013-1-14,66,54,37,56,46,35,94,76,69,30.25,29.88,31,7,33,0.29
2013-1-15,37,35,34,35,33,32,97,94,90,30.32,30.10,9,2,9,0.80
2013-1-16,51,37,32,44,36,31,98,96,78,30.11,29.78,27,2,27,0.26
2013-1-17,43,39,32,41,32,22,97,78,45,30.09,29.95,10,1,10,0.00
2013-1-18,40,33,29,29,16,10,88,51,31,30.44,30.08,26,3,26,0.00
2013-1-19,54,45,36,24,19,10,46,36,28,30.36,29.91,37,12,37,0.00
2013-1-20,54,46,33,29,17,-4,50,32,16,30.03,29.81,32,8,32,0.00
2013-1-21,47,34,26,19,11,1,61,39,20,30.03,29.76,33,6,33,0.00
2013-1-22,26,17,13,7,-5,-9,48,37,26,30.26,29.92,31,7,31,0.00
2013-1-23,26,18,8,15,0,-4,87,47,29,30.32,30.09,14,2,14,0.00
2013-1-24,24,18,12,15,8,0,92,66,37,30.53,30.04,22,3,23,0.00
2013-1-25,24,18,12,17,9,2,79,68,46,30.53,30.04,17,3,17,0.00
2013-1-26,33,28,21,26,21,17,87,75,62,30.42,30.04,8,1,8,0.00
2013-1-27,38,31,22,24,20,15,77,65,49,30.56,30.41,12,2,12,0.00
2013-1-28,58,45,31,48,37,23,91,73,60,30.42,30.04,23,8,28,0.13
2013-1-29,74,60,48,55,50,46,93,71,48,30.08,29.89,17,4,21,0.00
2013-1-30,68,61,53,60,55,49,98,81,69,29.89,29.19,38,8,38,1.90
2013-1-31,57,38,29,55,23,11,97,56,40,29.85,29.15,33,10,33,0.04
2013-2-1,31,22,11,24,7,-1,85,53,36,30.36,29.75,28,6,29,0.00
2013-2-2,30,21,11,23,11,2,80,65,36,30.35,29.98,21,6,21,0.00
2013-2-3,35,29,25,29,21,12,92,73,49,29.98,29.78,29,4,29,0.01
2013-2-4,39,30,20,30,15,8,74,53,45,30.06,29.85,27,6,27,0.00
2013-2-5,49,43,38,34,31,28,76,63,54,29.89,29.78,21,6,22,0.00
2013-2-6,46,38,29,32,27,22,82,64,42,30.29,29.88,15,2,15,0.05
2013-2-7,40,32,26,28,25,22,89,76,59,30.37,30.14,10,1,10,0.00
2013-2-8,41,34,30,37,29,21,96,82,58,30.13,29.77,26,2,26,0.10
2013-2-9,41,32,24,22,14,8,67,49,29,30.37,30.00,20,4,20,0.00
2013-2-10,46,33,18,28,15,8,78,50,31,30.43,30.16,25,4,25,0.01
2013-2-11,61,51,38,49,37,16,89,62,21,30.16,29.70,33,11,35,0.01
2013-2-12,59,48,38,25,20,13,53,35,17,29.93,29.78,21,3,22,0.00
2013-2-13,43,35,31,33,26,16,96,71,39,29.89,29.60,10,1,11,0.10
2013-2-14,48,38,29,32,27,23,97,65,40,29.99,29.77,15,2,15,0.06
2013-2-15,54,39,30,38,30,24,95,72,41,30.01,29.86,21,3,21,0.20
2013-2-16,33,30,24,32,23,12,97,75,53,29.96,29.83,15,2,18,0.00
2013-2-17,24,22,18,17,7,1,89,54,40,30.22,29.86,21,5,25,0.02
2013-2-18,46,30,13,21,11,2,76,49,21,30.37,30.10,15,3,15,0.00
2013-2-19,50,41,34,40,27,14,91,60,42,30.10,29.67,34,9,34,0.04
2013-2-20,37,31,22,15,12,9,63,47,33,30.14,29.84,23,5,23,0.00
2013-2-21,38,27,18,17,13,9,70,56,39,30.31,30.11,15,2,15,0.00
2013-2-22,33,30,26,27,22,15,88,74,61,30.34,30.13,12,2,12,0.01
2013-2-23,52,39,32,40,33,26,92,78,62,30.13,29.78,7,1,8,0.00
2013-2-24,50,39,28,38,28,15,98,68,32,30.11,29.79,17,4,20,0.00
2013-2-25,44,32,21,22,18,14,76,58,39,30.20,30.10,9,1,9,0.00
2013-2-26,41,33,26,37,28,18,97,83,63,30.17,29.61,14,2,15,0.69
2013-2-27,50,42,35,40,34,30,98,74,49,29.67,29.56,19,4,19,0.02
2013-2-28,42,38,33,32,25,22,70,59,48,29.73,29.60,19,5,19,0.00
2013-3-1,37,34,30,27,24,19,77,65,60,29.89,29.73,17,3,17,0.00
2013-3-2,33,30,28,24,19,16,82,64,52,29.88,29.81,14,3,14,0.00
2013-3-3,36,29,24,19,16,13,71,59,45,29.95,29.81,18,4,18,0.00
2013-3-4,43,31,21,17,12,9,64,46,27,30.04,29.95,17,3,17,0.00
2013-3-5,50,38,28,30,20,11,95,51,29,30.05,29.69,13,2,13,0.00
2013-3-6,38,33,30,33,30,27,97,91,67,30.03,29.60,21,3,22,0.24
2013-3-7,40,37,34,27,25,24,70,63,54,30.19,30.03,21,5,21,0.08
2013-3-8,41,35,29,27,24,22,80,64,54,30.32,30.16,19,5,21,0.00
2013-3-9,63,39,24,27,23,16,88,59,17,30.37,30.25,6,1,6,0.00
2013-3-10,62,44,26,30,25,22,88,51,27,30.28,30.15,12,2,13,0.00
2013-3-11,58,51,44,49,32,11,79,50,19,30.16,29.79,27,4,29,0.00
2013-3-12,57,50,37,51,42,26,97,74,44,29.95,29.67,29,5,29,0.75
2013-3-13,44,36,29,28,22,14,85,57,33,30.07,29.88,25,6,26,0.10
2013-3-14,42,34,26,20,15,12,69,46,31,30.15,30.05,20,6,23,0.00
2013-3-15,56,43,26,34,23,12,67,46,37,30.10,29.76,20,4,20,0.00
2013-3-16,64,48,34,50,40,31,95,74,50,29.86,29.56,29,4,29,0.18
2013-3-17,36,33,29,33,31,28,97,94,88,30.23,29.86,9,2,10,0.06
2013-3-18,32,30,29,31,29,28,97,96,90,30.25,29.87,9,1,9,0.40
2013-3-19,54,42,31,40,23,1,98,59,14,29.92,29.72,34,8,36,0.64
2013-3-20,49,40,31,27,11,4,68,31,20,29.97,29.72,26,7,28,0.00
2013-3-21,36,28,22,27,13,5,88,54,38,29.92,29.75,20,5,21,0.00
2013-3-22,46,34,24,18,13,8,58,44,28,29.99,29.87,21,5,21,0.00
2013-3-23,53,39,24,22,17,12,70,42,20,30.02,29.88,12,2,13,0.00
2013-3-24,39,32,29,29,24,18,96,73,43,29.95,29.58,9,1,9,0.00
2013-3-25,42,33,29,36,30,26,98,90,70,29.70,29.50,9,1,13,0.40
2013-3-26,42,37,32,30,27,23,84,68,49,30.03,29.70,18,4,19,0.21
2013-3-27,42,37,31,30,25,20,78,62,43,30.14,30.02,23,5,23,0.00
2013-3-28,44,38,33,27,25,22,66,58,48,30.23,30.10,18,4,20,0.00
2013-3-29,52,43,34,31,26,21,76,52,32,30.25,30.13,13,2,14,0.00
2013-3-30,59,44,28,32,26,22,84,52,27,30.20,30.05,13,2,13,0.00
2013-3-31,55,48,42,48,39,25,91,71,47,30.05,29.69,18,3,18,0.09
2013-4-1,57,48,38,44,33,16,71,56,39,29.95,29.73,26,6,26,0.00
2013-4-2,46,39,30,17,12,3,55,34,18,30.15,29.95,21,5,21,0.00
2013-4-3,49,38,26,16,12,8,61,37,20,30.34,30.15,29,5,29,0.00
2013-4-4,46,34,23,32,18,12,93,53,28,30.37,30.03,23,3,24,0.18
2013-4-5,61,46,33,41,31,24,97,62,27,30.02,29.83,24,4,24,0.09
2013-4-6,59,45,32,27,20,12,60,39,16,30.27,30.03,17,3,17,0.00
2013-4-7,69,56,41,42,36,21,69,48,34,30.17,29.93,41,11,41,0.00
2013-4-8,78,67,52,49,44,41,69,46,30,30.03,29.88,34,9,34,0.00
2013-4-9,82,72,57,55,50,48,73,47,34,30.04,29.88,36,9,36,0.00
2013-4-10,87,78,65,58,52,44,57,41,30,29.93,29.72,39,9,39,0.00
2013-4-11,84,73,59,60,54,36,76,53,21,29.82,29.63,30,6,30,0.00
2013-4-12,76,68,55,62,53,36,94,62,29,29.85,29.51,36,10,39,0.50
2013-4-13,69,57,44,41,32,20,65,41,18,30.06,29.85,33,7,37,0.00
2013-4-14,70,57,42,44,34,22,62,44,32,30.22,30.06,21,3,21,0.00
2013-4-15,62,56,50,52,48,40,94,73,48,30.28,30.12,20,3,24,0.10
2013-4-16,74,64,54,59,55,51,91,75,58,30.31,30.15,36,8,39,0.00
2013-4-17,80,66,58,63,59,56,95,79,48,30.25,30.13,21,3,21,0.05
2013-4-18,76,66,58,63,57,53,92,76,53,30.20,29.97,40,4,46,0.04
2013-4-19,74,66,52,64,57,38,93,75,57,29.97,29.61,46,11,46,0.51
2013-4-20,57,49,41,39,27,21,62,44,28,30.39,29.82,38,7,38,0.00
2013-4-21,53,43,34,30,26,22,70,51,32,30.63,30.39,17,3,17,0.00
2013-4-22,56,44,32,34,29,23,81,57,35,30.54,30.35,13,3,18,0.00
2013-4-23,65,52,39,46,41,33,85,66,47,30.37,30.09,12,2,12,0.00
2013-4-24,76,62,44,55,48,41,91,65,39,30.09,29.82,39,8,39,0.00
2013-4-25,65,52,41,41,30,12,71,46,14,30.37,30.07,27,4,27,0.00
2013-4-26,66,52,38,39,33,26,74,50,30,30.51,30.36,23,2,23,0.00
2013-4-27,71,57,43,45,39,34,71,52,33,30.44,30.29,13,1,13,0.00
2013-4-28,56,53,49,49,45,40,85,73,56,30.29,30.15,19,3,19,0.09
2013-4-29,64,55,49,58,51,45,95,85,72,30.17,30.03,11,2,13,0.05
2013-4-30,62,56,52,56,52,48,95,88,71,30.32,30.11,19,3,19,0.00
2013-5-1,69,58,49,49,41,27,91,59,24,30.43,30.31,16,3,16,0.00
2013-5-2,71,55,40,56,41,31,83,61,30,30.44,30.33,19,3,21,0.00
2013-5-3,65,54,40,49,43,38,93,70,44,30.40,30.29,25,5,25,0.00
2013-5-4,65,52,36,48,41,34,92,68,46,30.35,30.20,22,4,22,0.00
2013-5-5,63,52,40,44,38,32,75,60,40,30.25,30.14,19,5,19,0.00
2013-5-6,56,52,47,55,50,43,97,92,73,30.20,30.05,18,3,19,0.43
2013-5-7,60,56,51,58,55,51,98,97,91,30.04,29.93,22,4,22,3.63
2013-5-8,64,53,47,56,51,46,99,93,68,30.05,29.98,17,1,17,0.24
2013-5-9,77,59,45,59,50,44,99,77,36,30.08,29.98,16,2,16,0.05
2013-5-10,82,66,51,61,55,49,95,72,38,30.08,29.88,39,4,39,0.42
2013-5-11,76,67,58,62,58,53,90,74,51,29.92,29.74,28,7,28,0.06
2013-5-12,60,54,46,54,36,25,83,52,31,30.09,29.80,24,6,24,0.00
2013-5-13,55,47,38,36,29,21,79,52,30,30.24,30.08,23,4,23,0.00
2013-5-14,67,50,31,46,35,29,93,61,31,30.28,30.05,15,2,15,0.00
2013-5-15,91,71,50,63,50,42,76,52,20,30.06,29.75,25,5,31,0.00
2013-5-16,81,73,65,62,55,47,74,54,38,29.99,29.83,18,3,18,0.00
2013-5-17,81,68,56,62,57,53,95,70,41,30.13,29.97,15,2,16,0.00
2013-5-18,68,64,59,63,60,57,93,87,81,30.21,30.12,12,1,12,0.00
2013-5-19,71,64,57,64,60,55,97,88,73,30.21,30.10,13,2,15,0.00
2013-5-20,82,71,62,68,64,60,98,80,56,30.13,30.00,18,3,19,0.00
2013-5-21,89,73,59,70,64,58,97,76,42,30.03,29.89,12,2,15,0.00
2013-5-22,89,75,63,67,64,57,97,71,36,29.95,29.83,22,4,22,0.56
2013-5-23,81,69,60,66,62,59,97,79,52,29.92,29.76,22,4,22,0.31
2013-5-24,60,54,43,59,44,29,97,71,47,30.26,29.80,28,6,28,0.01
2013-5-25,62,51,37,37,32,28,73,51,30,30.32,30.21,25,4,25,0.00
2013-5-26,71,56,40,41,33,24,80,45,19,30.31,30.20,16,2,17,0.00
2013-5-27,63,55,42,54,44,35,87,70,48,30.34,30.22,6,1,6,0.01
2013-5-28,84,66,51,69,59,48,94,79,48,30.25,30.09,25,2,28,0.16
2013-5-29,88,78,70,65,61,57,75,58,39,30.17,30.09,27,6,27,0.00
2013-5-30,90,78,64,68,62,56,86,60,37,30.22,30.13,22,3,23,0.00
2013-5-31,88,77,63,66,62,58,88,62,38,30.18,30.05,24,5,24,0.00
2013-6-1,89,79,68,70,63,60,75,58,45,30.07,29.92,28,6,28,0.00
2013-6-2,82,75,70,68,64,59,89,68,58,29.93,29.85,29,9,30,0.00
2013-6-3,79,70,63,67,63,57,96,79,54,30.01,29.86,25,2,25,0.05
2013-6-4,77,63,52,57,48,39,94,62,29,30.17,30.01,15,2,15,0.00
2013-6-5,80,67,54,61,54,47,84,65,43,30.20,30.06,15,1,16,0.00
2013-6-6,66,62,59,61,58,53,97,88,72,30.07,29.87,10,1,11,0.99
2013-6-7,65,63,61,64,62,60,98,97,93,29.87,29.68,12,2,13,0.58
2013-6-8,82,68,58,65,60,54,95,78,42,30.12,29.82,8,1,8,0.04
2013-6-9,80,68,59,70,63,57,94,85,70,30.22,30.09,10,1,10,0.02
2013-6-10,80,69,65,72,66,63,98,93,72,30.13,29.83,19,2,19,1.94
2013-6-11,79,72,63,65,61,58,93,70,55,29.93,29.84,27,5,28,0.00
2013-6-12,88,75,61,72,64,59,92,70,47,29.93,29.82,18,3,18,0.00
2013-6-13,80,71,65,69,64,54,92,80,64,29.83,29.54,31,6,31,0.21
2013-6-14,77,67,60,57,53,51,77,62,43,30.06,29.71,16,3,18,0.00
2013-6-15,83,68,53,62,55,50,93,66,36,30.15,30.03,16,2,16,0.00
2013-6-16,80,70,57,67,61,53,91,72,57,30.07,29.94,19,4,19,0.00
2013-6-17,87,74,66,71,65,62,93,75,50,30.00,29.90,18,2,18,0.21
2013-6-18,75,67,61,68,64,59,95,90,67,29.96,29.83,13,2,13,0.35
2013-6-19,76,66,62,65,61,58,97,85,58,30.18,29.93,15,2,15,0.00
2013-6-20,80,69,61,66,62,59,96,79,54,30.27,30.18,12,1,12,0.00
2013-6-21,84,71,58,67,60,54,90,69,51,30.31,30.23,13,2,13,0.00
2013-6-22,87,72,58,68,62,54,90,72,48,30.28,30.15,16,2,16,0.00
2013-6-23,88,75,64,70,66,61,95,75,42,30.21,30.10,21,2,21,0.07
2013-6-24,89,74,63,73,66,61,95,80,44,30.18,30.06,19,2,23,0.01
2013-6-25,90,77,63,74,68,62,96,75,52,30.10,29.94,15,3,15,0.00
2013-6-26,87,75,66,72,69,63,95,82,56,29.95,29.86,24,2,24,0.87
2013-6-27,83,73,66,73,68,64,97,85,68,29.87,29.66,19,2,19,0.13
2013-6-28,88,76,65,71,65,58,85,69,40,29.69,29.50,19,4,19,0.01
2013-6-29,86,73,60,67,62,57,95,71,42,29.74,29.56,16,2,16,0.22
2013-6-30,85,73,64,73,67,63,98,83,58,29.87,29.72,15,1,15,0.00
2013-7-1,84,74,68,72,68,65,93,80,59,29.97,29.86,17,2,17,0.02
2013-7-2,79,73,68,71,68,65,97,85,72,30.17,29.97,18,3,19,0.31
2013-7-3,80,74,69,73,69,66,97,85,73,30.25,30.16,25,3,25,0.19
2013-7-4,86,77,70,74,70,67,95,79,59,30.27,30.18,34,4,34,0.65
2013-7-5,86,78,68,72,69,67,94,75,59,30.25,30.14,22,5,22,0.00
2013-7-6,89,80,69,74,69,66,92,71,53,30.22,30.09,24,5,24,0.00
2013-7-7,87,76,68,74,68,64,93,78,59,30.14,30.01,28,5,28,0.23
2013-7-8,84,74,64,72,66,62,96,78,58,30.17,30.08,15,2,18,0.05
2013-7-9,84,75,67,72,68,65,94,80,59,30.15,30.04,16,2,16,0.00
2013-7-10,83,76,72,74,70,66,92,79,66,30.05,29.90,25,4,25,0.01
2013-7-11,82,74,67,71,68,65,95,80,60,29.97,29.88,17,2,17,2.29
2013-7-12,67,65,62,65,63,61,97,95,87,30.11,29.95,12,2,12,2.79
2013-7-13,84,72,62,72,67,61,98,85,61,30.28,30.10,12,1,12,0.00
2013-7-14,90,76,66,72,68,65,98,79,50,30.36,30.27,17,2,17,0.06
2013-7-15,94,79,66,74,69,65,98,76,46,30.36,30.25,8,1,8,0.00
2013-7-16,90,79,69,75,71,67,96,78,56,30.31,30.21,12,2,12,0.00
2013-7-17,90,80,70,76,72,69,96,79,54,30.27,30.14,15,2,16,0.00
2013-7-18,96,82,71,78,74,69,96,78,48,30.18,30.04,8,1,8,0.00
2013-7-19,95,79,70,77,72,68,96,82,51,30.07,29.99,18,2,19,0.04
2013-7-20,91,79,69,75,70,64,96,75,52,30.02,29.91,19,4,27,0.00
2013-7-21,88,74,66,73,68,64,95,83,57,30.07,29.98,25,2,25,0.23
2013-7-22,88,76,68,75,70,66,97,83,61,30.04,29.84,16,2,16,0.01
2013-7-23,87,77,69,70,67,63,95,73,48,29.86,29.75,18,3,18,0.00
2013-7-24,80,72,66,69,64,59,92,77,60,30.02,29.78,15,2,17,0.00
2013-7-25,76,67,59,61,57,52,85,71,53,30.17,30.01,13,3,15,0.00
2013-7-26,85,68,53,65,58,52,96,72,42,30.23,30.11,13,1,13,0.00
2013-7-27,76,70,62,70,65,61,96,86,73,30.14,30.00,22,3,22,0.05
2013-7-28,86,74,67,69,65,60,92,74,50,30.09,29.97,17,2,17,0.00
2013-7-29,81,69,56,63,56,51,87,65,41,30.26,30.09,12,1,12,0.00
2013-7-30,83,69,56,63,57,52,90,68,42,30.30,30.20,13,2,15,0.00
2013-7-31,79,68,61,69,63,58,94,85,65,30.21,30.06,16,2,17,0.08
2013-8-1,84,70,64,70,66,62,97,88,60,30.06,29.90,17,2,21,0.24
2013-8-2,84,72,61,68,63,59,97,74,45,30.05,29.95,15,2,17,0.01
2013-8-3,78,68,63,68,64,59,94,85,65,30.05,29.99,11,1,11,0.02
2013-8-4,78,68,60,63,57,50,95,70,41,30.12,30.01,17,2,18,0.00
2013-8-5,82,67,53,62,56,50,94,70,39,30.18,30.06,7,1,12,0.00
2013-8-6,80,70,63,68,64,60,97,84,61,30.10,30.03,10,1,10,0.20
2013-8-7,83,73,65,72,68,64,98,84,65,30.11,30.04,23,3,23,0.01
2013-8-8,84,75,68,73,70,66,94,83,67,30.08,30.02,17,3,17,0.01
2013-8-9,87,80,72,73,70,66,93,74,57,30.04,29.96,27,6,27,0.00
2013-8-10,82,74,70,73,69,67,96,84,65,30.16,30.04,8,1,8,0.31
2013-8-11,85,74,68,73,69,66,96,84,62,30.17,30.06,12,1,13,0.01
2013-8-12,87,74,66,72,68,65,98,84,50,30.10,29.98,12,1,12,0.16
2013-8-13,84,74,69,70,67,62,98,79,56,29.98,29.83,25,3,25,0.13
2013-8-14,71,64,55,63,52,45,84,64,49,30.19,29.90,23,3,23,0.00
2013-8-15,76,62,48,58,52,47,97,73,44,30.25,30.15,8,1,10,0.00
2013-8-16,78,63,50,60,54,49,96,75,50,30.25,30.18,8,1,8,0.00
2013-8-17,76,64,52,61,56,50,96,76,51,30.31,30.25,15,2,15,0.00
2013-8-18,65,62,58,62,60,57,97,94,83,30.31,30.24,7,0,7,0.90
2013-8-19,80,69,60,70,65,59,99,88,67,30.24,30.11,12,2,12,0.04
2013-8-20,85,73,63,71,67,63,98,84,57,30.25,30.16,10,1,10,0.00
2013-8-21,86,72,66,74,67,63,98,87,56,30.27,30.15,30,2,30,0.20
2013-8-22,83,72,63,70,66,62,98,82,56,30.17,30.03,31,2,31,0.03
2013-8-23,70,66,59,67,64,58,98,95,83,30.20,30.02,13,1,13,1.00
2013-8-24,78,64,55,65,58,53,99,83,49,30.38,30.20,11,1,11,0.01
2013-8-25,80,66,54,66,59,53,98,79,50,30.47,30.33,11,1,13,0.00
2013-8-26,83,70,58,65,61,56,95,74,49,30.36,30.10,13,2,13,0.00
2013-8-27,85,74,64,72,66,60,95,79,61,30.12,30.00,15,2,16,0.02
2013-8-28,78,72,69,72,69,66,97,91,81,30.03,29.87,17,2,17,0.38
2013-8-29,81,73,66,72,69,64,98,88,64,30.09,29.91,13,2,15,0.01
2013-8-30,85,72,62,72,66,61,99,83,58,30.10,29.95,11,3,18,0.00
2013-8-31,87,75,68,72,68,66,94,81,58,29.98,29.88,21,4,23,0.02
2013-9-1,86,73,64,75,68,63,98,87,62,29.94,29.85,10,2,15,0.09
2013-9-2,87,76,67,72,69,66,99,81,57,29.90,29.81,13,2,13,0.01
2013-9-3,82,73,63,68,62,54,95,71,43,30.05,29.83,13,1,15,0.00
2013-9-4,80,66,54,63,57,52,96,74,46,30.16,30.05,10,1,10,0.00
2013-9-5,82,67,53,64,57,51,96,72,39,30.20,30.08,16,2,17,0.00
2013-9-6,74,62,52,55,52,48,88,70,43,30.30,30.18,11,1,11,0.00
2013-9-7,80,65,50,60,55,49,97,75,42,30.20,30.00,13,1,13,0.00
2013-9-8,86,71,60,69,63,57,96,77,51,30.09,29.95,11,2,11,0.00
2013-9-9,82,70,62,67,61,54,92,76,60,30.24,30.09,16,2,16,0.00
2013-9-10,90,78,66,72,69,63,91,74,50,30.25,30.16,21,4,21,0.00
2013-9-11,90,78,68,76,71,67,96,79,54,30.24,30.09,11,2,13,0.00
2013-9-12,90,73,67,72,68,62,97,86,52,30.09,29.84,42,2,42,0.45
2013-9-13,72,66,57,63,55,48,93,70,44,30.02,29.79,23,4,23,0.00
2013-9-14,65,55,47,48,45,41,88,69,48,30.21,30.02,15,2,15,0.00
2013-9-15,76,60,42,59,51,41,98,76,50,30.27,30.12,19,3,21,0.00
2013-9-16,66,60,53,59,56,51,95,86,68,30.29,30.10,13,2,13,0.03
2013-9-17,67,55,47,52,48,42,98,80,52,30.47,30.29,18,2,18,0.00
2013-9-18,70,55,40,54,47,39,97,76,53,30.36,30.21,15,2,15,0.00
2013-9-19,76,62,51,62,56,49,95,82,60,30.23,30.12,8,1,10,0.00
2013-9-20,79,65,56,66,60,55,98,85,62,30.13,29.99,15,1,15,0.00
2013-9-21,70,65,58,65,62,57,98,91,79,29.99,29.73,17,2,17,0.58
2013-9-22,69,60,52,58,53,45,98,77,52,30.02,29.80,13,1,15,0.00
2013-9-23,64,54,46,48,46,44,93,76,52,30.15,30.01,18,2,18,0.03
2013-9-24,72,57,45,56,50,43,96,79,52,30.15,30.00,11,1,11,0.00
2013-9-25,74,59,47,57,52,44,98,80,42,30.03,29.92,7,1,7,0.00
2013-9-26,73,60,51,55,51,43,97,74,35,30.12,29.97,13,2,15,0.00
2013-9-27,73,58,47,56,51,45,98,79,49,30.27,30.12,12,1,12,0.00
2013-9-28,63,56,46,56,52,45,98,87,69,30.35,30.26,7,0,7,0.00
2013-9-29,73,58,46,55,50,45,97,77,47,30.26,30.10,10,1,10,0.00
2013-9-30,75,60,46,57,51,44,97,77,48,30.13,30.02,11,1,11,0.00
2013-10-1,79,66,56,61,56,52,94,73,39,30.15,30.05,12,1,13,0.00
2013-10-2,84,66,53,62,57,52,97,75,42,30.17,30.08,11,2,11,0.00
2013-10-3,82,66,55,65,59,54,97,80,52,30.19,30.10,8,1,8,0.00
2013-10-4,85,68,57,66,61,57,98,80,48,30.17,30.09,11,1,11,0.00
2013-10-5,86,72,59,68,63,58,98,76,45,30.18,30.07,18,2,18,0.00
2013-10-6,85,72,60,67,62,59,97,73,46,30.09,29.95,23,3,24,0.00
2013-10-7,72,65,53,66,57,42,95,78,59,30.12,29.80,30,3,34,0.99
2013-10-8,64,54,44,48,44,40,91,72,45,30.32,30.12,15,2,17,0.00
2013-10-9,56,51,46,50,46,43,96,86,76,30.37,30.27,13,1,13,0.27
2013-10-10,53,50,48,52,50,47,98,97,94,30.27,30.07,13,2,16,1.37
2013-10-11,57,54,52,57,54,51,99,98,96,30.07,30.02,15,3,15,0.46
2013-10-12,61,59,56,60,58,55,99,98,96,30.22,30.04,16,3,16,0.33
2013-10-13,58,56,55,57,56,54,99,98,96,30.35,30.21,13,3,13,0.39
2013-10-14,64,57,52,58,55,52,99,94,81,30.36,30.27,7,1,7,0.01
2013-10-15,67,56,49,58,53,49,99,91,64,30.28,30.13,6,0,6,0.00
2013-10-16,70,60,50,60,56,49,98,86,68,30.13,29.96,17,2,17,0.00
2013-10-17,71,64,58,63,59,48,93,83,68,29.96,29.77,22,3,23,0.01
2013-10-18,64,54,46,50,42,38,86,65,41,30.07,29.90,17,2,23,0.00
2013-10-19,63,52,42,54,46,38,97,82,56,30.03,29.80,23,3,23,0.00
2013-10-20,62,49,38,40,35,32,80,59,35,30.13,29.93,22,2,22,0.00
2013-10-21,67,51,36,46,40,34,95,70,41,30.16,29.97,17,2,17,0.00
2013-10-22,65,55,45,48,45,38,87,70,48,29.97,29.85,17,3,18,0.00
2013-10-23,54,46,40,40,36,32,83,69,56,29.96,29.70,17,2,17,0.00
2013-10-24,47,42,35,34,29,23,79,61,40,30.18,29.96,21,3,21,0.00
2013-10-25,50,38,28,31,27,25,89,66,40,30.35,30.16,15,2,15,0.00
2013-10-26,54,41,25,32,26,23,93,60,33,30.34,29.95,27,6,30,0.00
2013-10-27,60,49,40,38,34,30,77,57,39,30.12,30.00,15,2,16,0.00
2013-10-28,64,49,34,44,39,32,95,71,43,30.30,30.15,10,1,10,0.00
2013-10-29,63,49,38,47,42,36,96,76,50,30.41,30.29,7,0,7,0.00
2013-10-30,69,57,48,56,51,43,93,80,62,30.33,30.16,19,2,19,0.00
2013-10-31,70,62,53,59,55,52,97,80,60,30.20,29.75,31,4,38,0.00
2013-11-1,73,65,53,60,51,45,90,63,42,29.75,29.60,18,6,38,0.00
2013-11-2,63,54,44,47,41,34,93,65,40,29.94,29.71,21,3,21,0.00
2013-11-3,55,46,36,38,30,22,74,55,31,30.44,29.94,21,3,23,0.00
2013-11-4,45,36,28,29,25,21,81,65,48,30.62,30.44,11,1,12,0.00
2013-11-5,53,42,29,45,33,23,85,72,52,30.62,30.45,11,2,11,0.00
2013-11-6,68,57,48,51,48,45,89,72,51,30.45,30.09,24,5,24,0.02
2013-11-7,60,53,40,54,43,21,92,70,46,30.13,29.92,35,7,35,0.09
2013-11-8,48,40,31,29,24,20,74,53,39,30.33,30.13,19,3,19,0.00
2013-11-9,57,43,26,30,26,22,88,56,31,30.34,30.06,34,6,34,0.00
2013-11-10,61,50,38,35,28,23,60,45,24,30.28,30.01,29,6,30,0.00
2013-11-11,61,47,30,32,25,20,83,47,22,30.32,30.01,30,6,30,0.00
2013-11-12,56,39,28,36,21,12,70,50,25,30.43,29.98,27,6,28,0.00
2013-11-13,40,31,25,18,14,7,65,51,32,30.51,30.39,19,3,19,0.00
2013-11-14,60,42,25,19,15,11,63,37,17,30.39,30.23,22,5,22,0.00
2013-11-15,63,50,36,43,21,9,93,36,12,30.30,30.17,21,4,21,0.15
2013-11-16,60,49,40,52,46,40,98,90,73,30.31,30.22,11,2,12,0.10
2013-11-17,64,59,52,58,54,49,93,83,73,30.22,29.75,42,7,42,0.03
2013-11-18,64,57,45,59,33,22,89,43,21,30.00,29.72,25,8,30,0.08
2013-11-19,45,39,31,26,25,24,77,58,44,30.38,30.00,18,4,18,0.00
2013-11-20,45,34,28,26,22,18,79,63,39,30.53,30.38,12,2,12,0.00
2013-11-21,51,40,28,44,34,24,91,80,65,30.55,30.37,18,2,18,0.00
2013-11-22,65,58,47,54,50,43,86,74,67,30.37,30.05,31,8,31,0.00
2013-11-23,55,42,26,48,27,12,80,57,27,30.24,30.06,30,6,31,0.00
2013-11-24,27,22,16,13,4,1,69,46,35,30.52,30.24,30,7,31,0.00
2013-11-25,39,26,13,13,8,2,79,50,26,30.52,30.30,28,4,29,0.00
2013-11-26,37,34,31,36,27,10,97,78,34,30.31,29.66,19,3,19,1.79
2013-11-27,36,32,25,36,28,12,98,84,57,30.09,29.59,31,5,34,0.14
2013-11-28,39,28,20,21,15,11,76,59,40,30.43,30.09,16,1,17,0.00
2013-11-29,41,29,21,24,20,16,84,69,46,30.68,30.42,12,1,12,0.00
2013-11-30,38,28,19,24,20,16,89,75,55,30.68,30.33,12,1,12,0.00
2013-12-1,50,37,25,31,26,20,80,65,42,30.33,30.01,11,2,11,0.00
2013-12-2,52,44,39,39,34,30,81,69,56,30.01,29.85,10,1,10,0.00
2013-12-3,56,43,34,41,36,31,88,76,55,29.99,29.87,7,1,7,0.00
2013-12-4,62,49,37,50,43,35,95,81,62,30.07,29.98,8,1,8,0.00
2013-12-5,69,61,53,57,54,49,89,78,64,30.06,29.95,30,8,30,0.01
2013-12-6,66,48,36,61,46,36,97,93,84,30.20,29.90,28,6,29,0.98
2013-12-7,38,34,26,36,29,22,97,83,65,30.53,30.14,15,3,15,0.04
2013-12-8,29,25,23,28,23,20,96,91,80,30.55,30.27,13,2,13,0.00
2013-12-9,47,33,29,43,32,27,97,95,84,30.29,30.00,7,0,7,0.49
2013-12-10,41,31,25,38,26,12,98,83,48,30.21,29.97,19,2,30,0.46
2013-12-11,40,31,20,21,16,10,76,54,39,30.37,30.20,18,4,19,0.03
2013-12-12,34,28,22,18,8,-1,60,44,25,30.40,30.22,24,4,24,0.00
2013-12-13,44,32,24,20,14,9,60,47,33,30.29,30.20,21,4,23,0.00
2013-12-14,34,32,29,32,28,19,97,87,56,30.29,29.75,8,0,8,0.25
2013-12-15,42,36,32,36,28,21,98,75,52,29.94,29.65,22,5,24,0.19
2013-12-16,39,35,30,27,26,24,87,71,58,30.14,29.94,13,2,13,0.00
2013-12-17,51,37,27,36,30,22,93,77,53,30.09,29.89,33,3,33,0.00
2013-12-18,42,35,29,23,20,18,67,55,41,30.20,30.00,18,4,21,0.00
2013-12-19,63,50,32,30,23,16,60,36,25,30.19,30.08,30,7,30,0.00
2013-12-20,63,56,45,42,28,22,50,36,24,30.11,30.00,35,11,36,0.00
2013-12-21,70,65,59,59,48,37,72,56,43,30.04,29.88,39,12,41,0.00
2013-12-22,70,64,59,61,57,54,95,78,67,30.06,29.83,40,10,44,0.46
2013-12-23,62,51,33,59,45,25,96,80,60,30.25,29.94,19,4,19,0.59
2013-12-24,35,28,18,26,17,3,84,64,40,30.46,30.21,28,4,28,0.00
2013-12-25,33,22,14,14,11,6,80,61,44,30.52,30.31,15,2,15,0.00
2013-12-26,45,34,22,24,16,10,66,48,33,30.36,30.21,27,5,27,0.00
2013-12-27,50,35,22,22,18,15,80,54,29,30.42,30.31,15,3,16,0.00
2013-12-28,55,41,28,26,22,20,72,49,28,30.35,30.12,22,4,22,0.00
2013-12-29,52,43,38,45,37,21,97,82,32,30.12,29.59,23,3,23,1.42
2013-12-30,46,38,27,37,30,23,88,73,62,30.16,29.84,18,2,18,0.00
2013-12-31,42,32,24,25,20,14,92,64,36,30.30,30.10,36,5,40,0.00
2014-1-1,52,38,28,27,22,16,71,53,33,30.37,30.09,21,4,22,0.00
2014-1-2,37,30,27,28,25,22,96,83,57,30.09,29.62,10,1,10,0.00